sensor_id;sensor_type;location;lat;lon;timestamp;P1;durP1;ratioP1;P2;durP2;ratioP2
50092;SDS011;35974;47.752;10.290;2024-02-26T00:00:29;3.67;;;2.13;;
50092;SDS011;35974;47.752;10.290;2024-02-26T00:02:56;3.28;;;2.10;;
50092;SDS011;35974;47.752;10.290;2024-02-26T00:05:28;3.88;;;1.92;;
50092;SDS011;35974;47.752;10.290;2024-02-26T00:07:54;4.53;;;2.40;;
50092;SDS011;35974;47.752;10.290;2024-02-26T00:10:27;4.90;;;2.08;;
50092;SDS011;35974;47.752;10.290;2024-02-26T00:12:54;2.95;;;2.00;;
50092;SDS011;35974;47.752;10.290;2024-02-26T00:15:22;4.63;;;2.17;;
50092;SDS011;35974;47.752;10.290;2024-02-26T00:17:49;4.72;;;2.05;;
50092;SDS011;35974;47.752;10.290;2024-02-26T00:20:18;2.80;;;1.75;;
50092;SDS011;35974;47.752;10.290;2024-02-26T00:22:44;3.65;;;1.90;;
50092;SDS011;35974;47.752;10.290;2024-02-26T00:25:11;2.72;;;1.83;;
50092;SDS011;35974;47.752;10.290;2024-02-26T00:30:10;3.10;;;2.20;;
50092;SDS011;35974;47.752;10.290;2024-02-26T00:32:38;3.83;;;1.95;;
50092;SDS011;35974;47.752;10.290;2024-02-26T00:35:05;4.45;;;1.98;;
50092;SDS011;35974;47.752;10.290;2024-02-26T00:37:32;3.35;;;2.08;;
50092;SDS011;35974;47.752;10.290;2024-02-26T00:39:58;2.35;;;1.67;;
50092;SDS011;35974;47.752;10.290;2024-02-26T00:42:25;4.30;;;2.15;;
50092;SDS011;35974;47.752;10.290;2024-02-26T00:44:51;4.35;;;2.15;;
50092;SDS011;35974;47.752;10.290;2024-02-26T00:47:18;5.00;;;2.17;;
50092;SDS011;35974;47.752;10.290;2024-02-26T00:49:44;4.13;;;2.00;;
50092;SDS011;35974;47.752;10.290;2024-02-26T00:52:12;3.78;;;2.30;;
50092;SDS011;35974;47.752;10.290;2024-02-26T00:54:39;3.35;;;2.08;;
50092;SDS011;35974;47.752;10.290;2024-02-26T00:57:05;3.78;;;1.67;;
50092;SDS011;35974;47.752;10.290;2024-02-26T00:59:35;3.33;;;1.65;;
50092;SDS011;35974;47.752;10.290;2024-02-26T01:02:02;2.22;;;1.60;;
50092;SDS011;35974;47.752;10.290;2024-02-26T01:04:31;2.25;;;1.60;;
50092;SDS011;35974;47.752;10.290;2024-02-26T01:06:58;2.08;;;1.48;;
50092;SDS011;35974;47.752;10.290;2024-02-26T01:09:25;3.42;;;1.45;;
50092;SDS011;35974;47.752;10.290;2024-02-26T01:11:51;2.72;;;1.30;;
50092;SDS011;35974;47.752;10.290;2024-02-26T01:14:18;1.52;;;1.30;;
50092;SDS011;35974;47.752;10.290;2024-02-26T01:16:44;2.53;;;1.38;;
50092;SDS011;35974;47.752;10.290;2024-02-26T01:19:11;3.00;;;1.52;;
50092;SDS011;35974;47.752;10.290;2024-02-26T01:21:37;2.53;;;1.25;;
50092;SDS011;35974;47.752;10.290;2024-02-26T01:24:05;2.42;;;1.50;;
50092;SDS011;35974;47.752;10.290;2024-02-26T01:26:32;2.63;;;1.25;;
50092;SDS011;35974;47.752;10.290;2024-02-26T01:28:58;2.40;;;1.35;;
50092;SDS011;35974;47.752;10.290;2024-02-26T01:31:25;1.80;;;1.30;;
50092;SDS011;35974;47.752;10.290;2024-02-26T01:33:53;3.30;;;1.80;;
50092;SDS011;35974;47.752;10.290;2024-02-26T01:36:19;2.80;;;1.40;;
50092;SDS011;35974;47.752;10.290;2024-02-26T01:38:47;3.35;;;1.40;;
50092;SDS011;35974;47.752;10.290;2024-02-26T01:41:13;2.13;;;0.98;;
50092;SDS011;35974;47.752;10.290;2024-02-26T01:43:40;1.42;;;0.98;;
50092;SDS011;35974;47.752;10.290;2024-02-26T01:46:08;1.92;;;1.15;;
50092;SDS011;35974;47.752;10.290;2024-02-26T01:48:40;1.75;;;1.10;;
50092;SDS011;35974;47.752;10.290;2024-02-26T01:51:10;2.10;;;1.00;;
50092;SDS011;35974;47.752;10.290;2024-02-26T01:53:38;1.77;;;1.20;;
50092;SDS011;35974;47.752;10.290;2024-02-26T01:56:05;3.13;;;1.10;;
50092;SDS011;35974;47.752;10.290;2024-02-26T01:58:32;1.83;;;0.95;;
50092;SDS011;35974;47.752;10.290;2024-02-26T02:01:00;3.15;;;1.15;;
50092;SDS011;35974;47.752;10.290;2024-02-26T02:03:28;1.15;;;0.98;;
50092;SDS011;35974;47.752;10.290;2024-02-26T02:06:06;3.40;;;1.13;;
50092;SDS011;35974;47.752;10.290;2024-02-26T02:08:34;1.50;;;0.90;;
50092;SDS011;35974;47.752;10.290;2024-02-26T02:11:02;1.50;;;0.98;;
50092;SDS011;35974;47.752;10.290;2024-02-26T02:13:29;1.70;;;1.02;;
50092;SDS011;35974;47.752;10.290;2024-02-26T02:15:56;1.45;;;1.00;;
50092;SDS011;35974;47.752;10.290;2024-02-26T02:18:22;1.45;;;1.08;;
50092;SDS011;35974;47.752;10.290;2024-02-26T02:20:49;0.90;;;0.80;;
50092;SDS011;35974;47.752;10.290;2024-02-26T02:23:16;2.30;;;0.95;;
50092;SDS011;35974;47.752;10.290;2024-02-26T02:25:42;1.40;;;0.80;;
50092;SDS011;35974;47.752;10.290;2024-02-26T02:28:09;0.75;;;0.52;;
50092;SDS011;35974;47.752;10.290;2024-02-26T02:30:35;0.95;;;0.70;;
50092;SDS011;35974;47.752;10.290;2024-02-26T02:33:05;1.40;;;0.77;;
50092;SDS011;35974;47.752;10.290;2024-02-26T02:35:32;1.23;;;0.60;;
50092;SDS011;35974;47.752;10.290;2024-02-26T02:37:58;1.10;;;0.70;;
50092;SDS011;35974;47.752;10.290;2024-02-26T02:40:25;1.80;;;0.90;;
50092;SDS011;35974;47.752;10.290;2024-02-26T02:42:51;1.25;;;0.63;;
50092;SDS011;35974;47.752;10.290;2024-02-26T02:45:18;0.47;;;0.43;;
50092;SDS011;35974;47.752;10.290;2024-02-26T02:50:14;1.23;;;0.68;;
50092;SDS011;35974;47.752;10.290;2024-02-26T02:52:41;1.73;;;0.60;;
50092;SDS011;35974;47.752;10.290;2024-02-26T02:55:07;1.08;;;0.52;;
50092;SDS011;35974;47.752;10.290;2024-02-26T02:57:34;0.90;;;0.60;;
50092;SDS011;35974;47.752;10.290;2024-02-26T03:00:07;1.00;;;0.70;;
50092;SDS011;35974;47.752;10.290;2024-02-26T03:02:37;0.65;;;0.50;;
50092;SDS011;35974;47.752;10.290;2024-02-26T03:05:04;0.70;;;0.50;;
50092;SDS011;35974;47.752;10.290;2024-02-26T03:07:31;1.27;;;0.47;;
50092;SDS011;35974;47.752;10.290;2024-02-26T03:09:58;1.67;;;0.70;;
50092;SDS011;35974;47.752;10.290;2024-02-26T03:12:28;0.70;;;0.47;;
50092;SDS011;35974;47.752;10.290;2024-02-26T03:14:56;0.98;;;0.70;;
50092;SDS011;35974;47.752;10.290;2024-02-26T03:17:24;0.95;;;0.60;;
50092;SDS011;35974;47.752;10.290;2024-02-26T03:19:51;2.28;;;0.73;;
50092;SDS011;35974;47.752;10.290;2024-02-26T03:22:19;1.75;;;0.80;;
50092;SDS011;35974;47.752;10.290;2024-02-26T03:24:46;1.17;;;0.60;;
50092;SDS011;35974;47.752;10.290;2024-02-26T03:27:13;1.55;;;0.60;;
50092;SDS011;35974;47.752;10.290;2024-02-26T03:29:40;1.60;;;0.70;;
50092;SDS011;35974;47.752;10.290;2024-02-26T03:32:13;0.80;;;0.50;;
50092;SDS011;35974;47.752;10.290;2024-02-26T03:34:40;1.00;;;0.60;;
50092;SDS011;35974;47.752;10.290;2024-02-26T03:37:06;0.82;;;0.60;;
50092;SDS011;35974;47.752;10.290;2024-02-26T03:39:35;1.67;;;0.68;;
50092;SDS011;35974;47.752;10.290;2024-02-26T03:42:02;1.10;;;0.70;;
50092;SDS011;35974;47.752;10.290;2024-02-26T03:44:29;1.08;;;0.75;;
50092;SDS011;35974;47.752;10.290;2024-02-26T03:46:55;1.45;;;0.70;;
50092;SDS011;35974;47.752;10.290;2024-02-26T03:49:22;1.52;;;0.90;;
50092;SDS011;35974;47.752;10.290;2024-02-26T03:51:48;2.35;;;0.82;;
50092;SDS011;35974;47.752;10.290;2024-02-26T03:54:15;2.22;;;1.20;;
50092;SDS011;35974;47.752;10.290;2024-02-26T03:56:41;2.55;;;1.00;;
50092;SDS011;35974;47.752;10.290;2024-02-26T03:59:20;1.80;;;0.90;;
50092;SDS011;35974;47.752;10.290;2024-02-26T04:01:49;4.38;;;0.98;;
50092;SDS011;35974;47.752;10.290;2024-02-26T04:04:16;2.53;;;1.40;;
50092;SDS011;35974;47.752;10.290;2024-02-26T04:06:46;4.65;;;2.03;;
50092;SDS011;35974;47.752;10.290;2024-02-26T04:09:13;5.35;;;2.55;;
50092;SDS011;35974;47.752;10.290;2024-02-26T04:11:44;6.10;;;3.33;;
50092;SDS011;35974;47.752;10.290;2024-02-26T04:14:10;5.85;;;3.45;;
50092;SDS011;35974;47.752;10.290;2024-02-26T04:16:38;4.82;;;2.97;;
50092;SDS011;35974;47.752;10.290;2024-02-26T04:19:08;5.32;;;3.00;;
50092;SDS011;35974;47.752;10.290;2024-02-26T04:21:35;4.93;;;2.70;;
50092;SDS011;35974;47.752;10.290;2024-02-26T04:24:01;6.35;;;3.40;;
50092;SDS011;35974;47.752;10.290;2024-02-26T04:26:30;6.60;;;4.10;;
50092;SDS011;35974;47.752;10.290;2024-02-26T04:28:56;6.75;;;3.70;;
50092;SDS011;35974;47.752;10.290;2024-02-26T04:33:59;6.70;;;3.55;;
50092;SDS011;35974;47.752;10.290;2024-02-26T04:36:25;6.40;;;4.00;;
50092;SDS011;35974;47.752;10.290;2024-02-26T04:38:52;7.47;;;4.25;;
50092;SDS011;35974;47.752;10.290;2024-02-26T04:41:21;5.97;;;3.40;;
50092;SDS011;35974;47.752;10.290;2024-02-26T04:43:48;4.82;;;3.40;;
50092;SDS011;35974;47.752;10.290;2024-02-26T04:46:14;7.88;;;3.88;;
50092;SDS011;35974;47.752;10.290;2024-02-26T04:48:41;7.50;;;3.95;;
50092;SDS011;35974;47.752;10.290;2024-02-26T04:51:08;6.80;;;3.95;;
50092;SDS011;35974;47.752;10.290;2024-02-26T04:53:35;7.75;;;4.10;;
50092;SDS011;35974;47.752;10.290;2024-02-26T04:56:11;9.93;;;4.00;;
50092;SDS011;35974;47.752;10.290;2024-02-26T04:58:37;5.38;;;3.65;;
50092;SDS011;35974;47.752;10.290;2024-02-26T05:01:04;7.32;;;3.85;;
50092;SDS011;35974;47.752;10.290;2024-02-26T05:03:30;8.27;;;3.92;;
50092;SDS011;35974;47.752;10.290;2024-02-26T05:06:04;5.75;;;3.47;;
50092;SDS011;35974;47.752;10.290;2024-02-26T05:08:32;9.93;;;4.68;;
50092;SDS011;35974;47.752;10.290;2024-02-26T05:11:02;7.05;;;3.85;;
50092;SDS011;35974;47.752;10.290;2024-02-26T05:13:33;6.22;;;3.65;;
50092;SDS011;35974;47.752;10.290;2024-02-26T05:16:00;6.60;;;3.08;;
50092;SDS011;35974;47.752;10.290;2024-02-26T05:18:27;6.25;;;3.42;;
50092;SDS011;35974;47.752;10.290;2024-02-26T05:20:54;5.82;;;2.60;;
50092;SDS011;35974;47.752;10.290;2024-02-26T05:23:20;4.88;;;2.75;;
50092;SDS011;35974;47.752;10.290;2024-02-26T05:25:51;6.20;;;2.80;;
50092;SDS011;35974;47.752;10.290;2024-02-26T05:28:17;4.70;;;2.35;;
50092;SDS011;35974;47.752;10.290;2024-02-26T05:30:47;9.80;;;5.05;;
50092;SDS011;35974;47.752;10.290;2024-02-26T05:33:17;7.97;;;3.95;;
50092;SDS011;35974;47.752;10.290;2024-02-26T05:35:44;5.45;;;2.33;;
50092;SDS011;35974;47.752;10.290;2024-02-26T05:38:11;3.90;;;1.85;;
50092;SDS011;35974;47.752;10.290;2024-02-26T05:40:37;3.08;;;1.67;;
50092;SDS011;35974;47.752;10.290;2024-02-26T05:43:16;3.75;;;1.95;;
50092;SDS011;35974;47.752;10.290;2024-02-26T05:45:43;3.97;;;1.90;;
50092;SDS011;35974;47.752;10.290;2024-02-26T05:48:18;4.22;;;1.77;;
50092;SDS011;35974;47.752;10.290;2024-02-26T05:50:55;5.07;;;1.70;;
50092;SDS011;35974;47.752;10.290;2024-02-26T05:53:22;2.35;;;1.30;;
50092;SDS011;35974;47.752;10.290;2024-02-26T05:55:49;4.38;;;1.63;;
50092;SDS011;35974;47.752;10.290;2024-02-26T05:58:17;4.68;;;2.10;;
50092;SDS011;35974;47.752;10.290;2024-02-26T06:00:43;4.75;;;2.20;;
50092;SDS011;35974;47.752;10.290;2024-02-26T06:03:12;3.20;;;1.80;;
50092;SDS011;35974;47.752;10.290;2024-02-26T06:05:39;5.18;;;2.40;;
50092;SDS011;35974;47.752;10.290;2024-02-26T06:08:05;5.85;;;2.60;;
50092;SDS011;35974;47.752;10.290;2024-02-26T06:10:33;3.67;;;2.28;;
50092;SDS011;35974;47.752;10.290;2024-02-26T06:12:59;3.22;;;2.30;;
50092;SDS011;35974;47.752;10.290;2024-02-26T06:15:26;4.20;;;2.30;;
50092;SDS011;35974;47.752;10.290;2024-02-26T06:17:52;3.08;;;2.00;;
50092;SDS011;35974;47.752;10.290;2024-02-26T06:20:21;3.78;;;1.92;;
50092;SDS011;35974;47.752;10.290;2024-02-26T06:22:47;4.28;;;2.30;;
50092;SDS011;35974;47.752;10.290;2024-02-26T06:25:15;5.05;;;2.28;;
50092;SDS011;35974;47.752;10.290;2024-02-26T06:27:42;3.88;;;2.30;;
50092;SDS011;35974;47.752;10.290;2024-02-26T06:30:09;4.55;;;2.13;;
50092;SDS011;35974;47.752;10.290;2024-02-26T06:35:13;5.60;;;2.22;;
50092;SDS011;35974;47.752;10.290;2024-02-26T06:37:40;3.97;;;2.42;;
50092;SDS011;35974;47.752;10.290;2024-02-26T06:40:12;9.48;;;2.90;;
50092;SDS011;35974;47.752;10.290;2024-02-26T06:42:39;7.60;;;3.35;;
50092;SDS011;35974;47.752;10.290;2024-02-26T06:45:06;10.40;;;2.90;;
50092;SDS011;35974;47.752;10.290;2024-02-26T06:47:35;8.95;;;2.70;;
50092;SDS011;35974;47.752;10.290;2024-02-26T06:50:01;15.45;;;3.67;;
50092;SDS011;35974;47.752;10.290;2024-02-26T06:52:28;6.88;;;2.78;;
50092;SDS011;35974;47.752;10.290;2024-02-26T06:54:57;8.10;;;2.40;;
50092;SDS011;35974;47.752;10.290;2024-02-26T06:57:23;4.30;;;2.03;;
50092;SDS011;35974;47.752;10.290;2024-02-26T06:59:50;5.00;;;2.13;;
50092;SDS011;35974;47.752;10.290;2024-02-26T07:02:17;5.07;;;2.20;;
50092;SDS011;35974;47.752;10.290;2024-02-26T07:04:43;9.57;;;3.55;;
50092;SDS011;35974;47.752;10.290;2024-02-26T07:07:10;12.88;;;3.10;;
50092;SDS011;35974;47.752;10.290;2024-02-26T07:09:37;6.47;;;2.88;;
50092;SDS011;35974;47.752;10.290;2024-02-26T07:12:03;11.73;;;3.75;;
50092;SDS011;35974;47.752;10.290;2024-02-26T07:14:30;6.63;;;3.20;;
50092;SDS011;35974;47.752;10.290;2024-02-26T07:16:57;7.97;;;3.03;;
50092;SDS011;35974;47.752;10.290;2024-02-26T07:19:24;6.95;;;3.67;;
50092;SDS011;35974;47.752;10.290;2024-02-26T07:21:51;6.13;;;3.10;;
50092;SDS011;35974;47.752;10.290;2024-02-26T07:24:17;5.75;;;3.03;;
50092;SDS011;35974;47.752;10.290;2024-02-26T07:26:44;6.45;;;3.13;;
50092;SDS011;35974;47.752;10.290;2024-02-26T07:29:11;5.03;;;2.38;;
50092;SDS011;35974;47.752;10.290;2024-02-26T07:31:37;3.38;;;2.45;;
50092;SDS011;35974;47.752;10.290;2024-02-26T07:34:04;4.38;;;2.50;;
50092;SDS011;35974;47.752;10.290;2024-02-26T07:36:30;5.38;;;2.83;;
50092;SDS011;35974;47.752;10.290;2024-02-26T07:38:57;5.40;;;2.63;;
50092;SDS011;35974;47.752;10.290;2024-02-26T07:41:24;5.07;;;2.28;;
50092;SDS011;35974;47.752;10.290;2024-02-26T07:43:50;4.28;;;2.28;;
50092;SDS011;35974;47.752;10.290;2024-02-26T07:46:17;3.10;;;1.90;;
50092;SDS011;35974;47.752;10.290;2024-02-26T07:48:43;5.47;;;2.03;;
50092;SDS011;35974;47.752;10.290;2024-02-26T07:51:12;4.70;;;2.40;;
50092;SDS011;35974;47.752;10.290;2024-02-26T07:53:40;3.63;;;2.00;;
50092;SDS011;35974;47.752;10.290;2024-02-26T07:56:07;3.13;;;2.00;;
50092;SDS011;35974;47.752;10.290;2024-02-26T07:58:34;5.32;;;2.45;;
50092;SDS011;35974;47.752;10.290;2024-02-26T08:01:00;6.40;;;2.60;;
50092;SDS011;35974;47.752;10.290;2024-02-26T08:03:27;5.88;;;3.40;;
50092;SDS011;35974;47.752;10.290;2024-02-26T08:05:54;6.15;;;2.63;;
50092;SDS011;35974;47.752;10.290;2024-02-26T08:08:21;6.72;;;3.05;;
50092;SDS011;35974;47.752;10.290;2024-02-26T08:10:47;7.93;;;2.53;;
50092;SDS011;35974;47.752;10.290;2024-02-26T08:13:14;9.52;;;3.17;;
50092;SDS011;35974;47.752;10.290;2024-02-26T08:15:41;6.00;;;2.92;;
50092;SDS011;35974;47.752;10.290;2024-02-26T08:18:08;6.50;;;3.60;;
50092;SDS011;35974;47.752;10.290;2024-02-26T08:20:35;6.70;;;2.80;;
50092;SDS011;35974;47.752;10.290;2024-02-26T08:23:02;8.35;;;3.22;;
50092;SDS011;35974;47.752;10.290;2024-02-26T08:25:29;6.85;;;3.22;;
50092;SDS011;35974;47.752;10.290;2024-02-26T08:27:55;7.10;;;3.47;;
50092;SDS011;35974;47.752;10.290;2024-02-26T08:30:22;8.10;;;3.22;;
50092;SDS011;35974;47.752;10.290;2024-02-26T08:32:49;5.38;;;2.92;;
50092;SDS011;35974;47.752;10.290;2024-02-26T08:35:24;6.68;;;2.90;;
50092;SDS011;35974;47.752;10.290;2024-02-26T08:37:50;6.55;;;2.67;;
50092;SDS011;35974;47.752;10.290;2024-02-26T08:40:17;5.15;;;3.00;;
50092;SDS011;35974;47.752;10.290;2024-02-26T08:42:43;5.32;;;3.22;;
50092;SDS011;35974;47.752;10.290;2024-02-26T08:45:11;5.40;;;3.33;;
50092;SDS011;35974;47.752;10.290;2024-02-26T08:47:38;9.88;;;4.28;;
50092;SDS011;35974;47.752;10.290;2024-02-26T08:50:05;7.82;;;3.33;;
50092;SDS011;35974;47.752;10.290;2024-02-26T08:52:32;5.20;;;2.83;;
50092;SDS011;35974;47.752;10.290;2024-02-26T08:55:03;5.68;;;3.10;;
50092;SDS011;35974;47.752;10.290;2024-02-26T08:57:30;6.07;;;3.28;;
50092;SDS011;35974;47.752;10.290;2024-02-26T09:00:00;5.65;;;3.08;;
50092;SDS011;35974;47.752;10.290;2024-02-26T09:02:27;7.32;;;3.25;;
50092;SDS011;35974;47.752;10.290;2024-02-26T09:04:54;5.65;;;2.55;;
50092;SDS011;35974;47.752;10.290;2024-02-26T09:07:21;5.50;;;2.80;;
50092;SDS011;35974;47.752;10.290;2024-02-26T09:09:48;4.85;;;2.70;;
50092;SDS011;35974;47.752;10.290;2024-02-26T09:12:15;7.43;;;3.33;;
50092;SDS011;35974;47.752;10.290;2024-02-26T09:14:42;4.93;;;3.08;;
50092;SDS011;35974;47.752;10.290;2024-02-26T09:17:08;6.13;;;3.10;;
50092;SDS011;35974;47.752;10.290;2024-02-26T09:19:35;4.40;;;2.33;;
50092;SDS011;35974;47.752;10.290;2024-02-26T09:22:01;4.82;;;2.50;;
50092;SDS011;35974;47.752;10.290;2024-02-26T09:24:36;5.03;;;2.20;;
50092;SDS011;35974;47.752;10.290;2024-02-26T09:27:02;4.20;;;2.20;;
50092;SDS011;35974;47.752;10.290;2024-02-26T09:29:29;4.65;;;2.30;;
50092;SDS011;35974;47.752;10.290;2024-02-26T09:31:55;4.63;;;2.63;;
50092;SDS011;35974;47.752;10.290;2024-02-26T09:34:22;4.65;;;2.45;;
50092;SDS011;35974;47.752;10.290;2024-02-26T09:36:51;5.20;;;2.35;;
50092;SDS011;35974;47.752;10.290;2024-02-26T09:39:17;3.42;;;2.25;;
50092;SDS011;35974;47.752;10.290;2024-02-26T09:41:48;4.82;;;2.20;;
50092;SDS011;35974;47.752;10.290;2024-02-26T09:44:18;2.80;;;2.00;;
50092;SDS011;35974;47.752;10.290;2024-02-26T09:46:48;3.40;;;2.35;;
50092;SDS011;35974;47.752;10.290;2024-02-26T09:49:20;4.65;;;2.35;;
50092;SDS011;35974;47.752;10.290;2024-02-26T09:51:50;4.25;;;2.15;;
50092;SDS011;35974;47.752;10.290;2024-02-26T09:54:18;6.10;;;2.88;;
50092;SDS011;35974;47.752;10.290;2024-02-26T09:56:44;3.85;;;2.60;;
50092;SDS011;35974;47.752;10.290;2024-02-26T09:59:28;7.25;;;3.22;;
50092;SDS011;35974;47.752;10.290;2024-02-26T10:02:00;5.47;;;3.80;;
50092;SDS011;35974;47.752;10.290;2024-02-26T10:04:29;4.15;;;2.72;;
50092;SDS011;35974;47.752;10.290;2024-02-26T10:06:56;5.50;;;2.80;;
50092;SDS011;35974;47.752;10.290;2024-02-26T10:09:22;5.28;;;2.53;;
50092;SDS011;35974;47.752;10.290;2024-02-26T10:11:49;3.50;;;2.53;;
50092;SDS011;35974;47.752;10.290;2024-02-26T10:14:16;6.82;;;2.78;;
50092;SDS011;35974;47.752;10.290;2024-02-26T10:16:43;3.33;;;2.08;;
50092;SDS011;35974;47.752;10.290;2024-02-26T10:19:10;10.13;;;2.60;;
50092;SDS011;35974;47.752;10.290;2024-02-26T10:21:57;4.07;;;2.10;;
50092;SDS011;35974;47.752;10.290;2024-02-26T10:24:25;3.53;;;2.50;;
50092;SDS011;35974;47.752;10.290;2024-02-26T10:26:52;4.15;;;2.25;;
50092;SDS011;35974;47.752;10.290;2024-02-26T10:29:19;3.95;;;2.05;;
50092;SDS011;35974;47.752;10.290;2024-02-26T10:31:46;3.22;;;2.10;;
50092;SDS011;35974;47.752;10.290;2024-02-26T10:34:17;3.10;;;1.58;;
50092;SDS011;35974;47.752;10.290;2024-02-26T10:36:44;5.05;;;1.70;;
50092;SDS011;35974;47.752;10.290;2024-02-26T10:39:19;3.78;;;1.98;;
50092;SDS011;35974;47.752;10.290;2024-02-26T10:41:53;1.95;;;1.45;;
50092;SDS011;35974;47.752;10.290;2024-02-26T10:44:19;1.77;;;0.93;;
50092;SDS011;35974;47.752;10.290;2024-02-26T10:46:46;1.17;;;1.00;;
50092;SDS011;35974;47.752;10.290;2024-02-26T10:49:16;2.00;;;1.20;;
50092;SDS011;35974;47.752;10.290;2024-02-26T10:51:54;2.05;;;1.08;;
50092;SDS011;35974;47.752;10.290;2024-02-26T10:54:25;1.20;;;0.73;;
50092;SDS011;35974;47.752;10.290;2024-02-26T10:56:55;1.20;;;0.60;;
50092;SDS011;35974;47.752;10.290;2024-02-26T10:59:23;2.25;;;0.82;;
50092;SDS011;35974;47.752;10.290;2024-02-26T11:01:49;1.92;;;0.73;;
50092;SDS011;35974;47.752;10.290;2024-02-26T11:04:17;2.85;;;0.70;;
50092;SDS011;35974;47.752;10.290;2024-02-26T11:06:45;1.77;;;0.60;;
50092;SDS011;35974;47.752;10.290;2024-02-26T11:09:18;3.42;;;0.68;;
50092;SDS011;35974;47.752;10.290;2024-02-26T11:11:46;1.73;;;0.70;;
50092;SDS011;35974;47.752;10.290;2024-02-26T11:14:14;0.70;;;0.47;;
50092;SDS011;35974;47.752;10.290;2024-02-26T11:16:42;1.35;;;0.60;;
50092;SDS011;35974;47.752;10.290;2024-02-26T11:19:13;0.38;;;0.30;;
50092;SDS011;35974;47.752;10.290;2024-02-26T11:21:40;0.65;;;0.40;;
50092;SDS011;35974;47.752;10.290;2024-02-26T11:24:09;1.25;;;0.57;;
50092;SDS011;35974;47.752;10.290;2024-02-26T11:26:43;1.17;;;0.50;;
50092;SDS011;35974;47.752;10.290;2024-02-26T11:29:15;1.42;;;0.50;;
50092;SDS011;35974;47.752;10.290;2024-02-26T11:31:47;1.60;;;0.68;;
50092;SDS011;35974;47.752;10.290;2024-02-26T11:34:14;1.13;;;0.40;;
50092;SDS011;35974;47.752;10.290;2024-02-26T11:36:41;0.80;;;0.60;;
50092;SDS011;35974;47.752;10.290;2024-02-26T11:39:16;1.20;;;0.77;;
50092;SDS011;35974;47.752;10.290;2024-02-26T11:41:43;1.00;;;0.60;;
50092;SDS011;35974;47.752;10.290;2024-02-26T11:44:10;1.17;;;0.55;;
50092;SDS011;35974;47.752;10.290;2024-02-26T11:46:40;1.42;;;0.45;;
50092;SDS011;35974;47.752;10.290;2024-02-26T11:52:04;1.05;;;0.50;;
50092;SDS011;35974;47.752;10.290;2024-02-26T11:57:29;1.42;;;0.50;;
50092;SDS011;35974;47.752;10.290;2024-02-26T12:00:00;0.75;;;0.40;;
50092;SDS011;35974;47.752;10.290;2024-02-26T12:05:32;1.48;;;0.63;;
50092;SDS011;35974;47.752;10.290;2024-02-26T12:08:00;1.13;;;0.70;;
50092;SDS011;35974;47.752;10.290;2024-02-26T12:10:35;2.05;;;0.82;;
50092;SDS011;35974;47.752;10.290;2024-02-26T12:13:08;1.80;;;0.68;;
50092;SDS011;35974;47.752;10.290;2024-02-26T12:15:44;3.15;;;0.80;;
50092;SDS011;35974;47.752;10.290;2024-02-26T12:18:28;1.25;;;0.75;;
50092;SDS011;35974;47.752;10.290;2024-02-26T12:21:00;6.68;;;1.00;;
50092;SDS011;35974;47.752;10.290;2024-02-26T12:23:28;2.65;;;1.05;;
50092;SDS011;35974;47.752;10.290;2024-02-26T12:26:04;1.40;;;0.70;;
50092;SDS011;35974;47.752;10.290;2024-02-26T12:28:38;2.25;;;0.80;;
50092;SDS011;35974;47.752;10.290;2024-02-26T12:31:10;1.27;;;0.80;;
50092;SDS011;35974;47.752;10.290;2024-02-26T12:33:37;1.02;;;0.70;;
50092;SDS011;35974;47.752;10.290;2024-02-26T12:36:14;3.45;;;0.80;;
50092;SDS011;35974;47.752;10.290;2024-02-26T12:38:43;1.02;;;0.50;;
50092;SDS011;35974;47.752;10.290;2024-02-26T12:41:15;1.08;;;0.73;;
50092;SDS011;35974;47.752;10.290;2024-02-26T12:43:48;1.30;;;0.70;;
50092;SDS011;35974;47.752;10.290;2024-02-26T12:46:17;1.90;;;0.50;;
50092;SDS011;35974;47.752;10.290;2024-02-26T12:48:46;1.80;;;0.98;;
50092;SDS011;35974;47.752;10.290;2024-02-26T12:51:14;1.98;;;0.90;;
50092;SDS011;35974;47.752;10.290;2024-02-26T12:53:42;1.67;;;0.63;;
50092;SDS011;35974;47.752;10.290;2024-02-26T12:56:13;1.35;;;0.82;;
50092;SDS011;35974;47.752;10.290;2024-02-26T12:58:40;3.17;;;1.20;;
50092;SDS011;35974;47.752;10.290;2024-02-26T13:01:07;3.53;;;0.77;;
50092;SDS011;35974;47.752;10.290;2024-02-26T13:03:47;2.95;;;0.80;;
50092;SDS011;35974;47.752;10.290;2024-02-26T13:06:17;1.63;;;0.65;;
50092;SDS011;35974;47.752;10.290;2024-02-26T13:08:48;1.85;;;1.15;;
50092;SDS011;35974;47.752;10.290;2024-02-26T13:11:19;1.52;;;1.00;;
50092;SDS011;35974;47.752;10.290;2024-02-26T13:13:48;2.00;;;0.70;;
50092;SDS011;35974;47.752;10.290;2024-02-26T13:16:17;1.60;;;0.80;;
50092;SDS011;35974;47.752;10.290;2024-02-26T13:18:46;1.60;;;0.80;;
50092;SDS011;35974;47.752;10.290;2024-02-26T13:21:18;1.35;;;0.70;;
50092;SDS011;35974;47.752;10.290;2024-02-26T13:23:48;1.25;;;0.80;;
50092;SDS011;35974;47.752;10.290;2024-02-26T13:26:16;1.27;;;0.80;;
50092;SDS011;35974;47.752;10.290;2024-02-26T13:28:44;2.45;;;1.10;;
50092;SDS011;35974;47.752;10.290;2024-02-26T13:36:20;3.55;;;2.03;;
50092;SDS011;35974;47.752;10.290;2024-02-26T13:38:53;3.90;;;2.28;;
50092;SDS011;35974;47.752;10.290;2024-02-26T13:41:33;2.88;;;1.98;;
50092;SDS011;35974;47.752;10.290;2024-02-26T13:44:08;3.72;;;2.03;;
50092;SDS011;35974;47.752;10.290;2024-02-26T13:46:36;6.78;;;2.33;;
50092;SDS011;35974;47.752;10.290;2024-02-26T13:49:08;5.22;;;2.60;;
50092;SDS011;35974;47.752;10.290;2024-02-26T13:51:35;3.90;;;2.15;;
50092;SDS011;35974;47.752;10.290;2024-02-26T13:54:05;6.38;;;2.60;;
50092;SDS011;35974;47.752;10.290;2024-02-26T13:56:33;26.42;;;3.58;;
50092;SDS011;35974;47.752;10.290;2024-02-26T13:59:04;7.55;;;2.30;;
50092;SDS011;35974;47.752;10.290;2024-02-26T14:01:44;10.23;;;2.30;;
50092;SDS011;35974;47.752;10.290;2024-02-26T14:04:11;6.55;;;2.60;;
50092;SDS011;35974;47.752;10.290;2024-02-26T14:06:38;8.52;;;2.15;;
50092;SDS011;35974;47.752;10.290;2024-02-26T14:09:10;3.72;;;1.85;;
50092;SDS011;35974;47.752;10.290;2024-02-26T14:11:44;5.15;;;1.67;;
50092;SDS011;35974;47.752;10.290;2024-02-26T14:14:12;6.32;;;1.55;;
50092;SDS011;35974;47.752;10.290;2024-02-26T14:16:39;2.95;;;1.42;;
50092;SDS011;35974;47.752;10.290;2024-02-26T14:19:05;3.65;;;1.30;;
50092;SDS011;35974;47.752;10.290;2024-02-26T14:21:32;2.40;;;1.20;;
50092;SDS011;35974;47.752;10.290;2024-02-26T14:23:59;2.28;;;1.42;;
50092;SDS011;35974;47.752;10.290;2024-02-26T14:26:25;2.95;;;1.48;;
50092;SDS011;35974;47.752;10.290;2024-02-26T14:28:53;2.85;;;1.00;;
50092;SDS011;35974;47.752;10.290;2024-02-26T14:31:20;3.13;;;1.67;;
50092;SDS011;35974;47.752;10.290;2024-02-26T14:33:47;15.18;;;2.33;;
50092;SDS011;35974;47.752;10.290;2024-02-26T14:36:28;5.28;;;1.70;;
50092;SDS011;35974;47.752;10.290;2024-02-26T14:39:07;9.93;;;1.67;;
50092;SDS011;35974;47.752;10.290;2024-02-26T14:41:37;3.08;;;0.82;;
50092;SDS011;35974;47.752;10.290;2024-02-26T14:44:13;3.13;;;0.70;;
50092;SDS011;35974;47.752;10.290;2024-02-26T14:46:50;2.45;;;0.80;;
50092;SDS011;35974;47.752;10.290;2024-02-26T14:51:47;11.88;;;1.75;;
50092;SDS011;35974;47.752;10.290;2024-02-26T14:54:14;12.88;;;1.83;;
50092;SDS011;35974;47.752;10.290;2024-02-26T14:56:41;4.13;;;1.10;;
50092;SDS011;35974;47.752;10.290;2024-02-26T14:59:11;5.03;;;0.77;;
50092;SDS011;35974;47.752;10.290;2024-02-26T15:01:46;9.27;;;1.30;;
50092;SDS011;35974;47.752;10.290;2024-02-26T15:04:14;5.82;;;0.73;;
50092;SDS011;35974;47.752;10.290;2024-02-26T15:06:41;2.83;;;0.80;;